Forest View, Illinois
Current Conditions -  °F | °C
As of 8:53 PM on Friday 19 Dec 2014 (Local Time) from KMDW Reporting Station
Overcast Overcast  
Wind Chill: 29°   Ceiling: 2500
Heat Index: 33°   Visibility: 10mi
Dew Point: 25°   Wind: 5mph
Humidity: 72%   Direction: 170°S
Pressure: 30.27"   Gusts: NA
Location:  41.789°N, 87.7699°W
Report Text: KMDW 200253Z 17004KT 10SM OVC025 01/M04 A3027 RMK AO2 SLP263 T00061039 56006
Loading
Personal Weather Stations






























Interactive Weather Map New forecast layout! Learn more

10-Day Weather Forecast

Advertisements
Track Severe Weather on mobile